ZSSSZSFZ

Guest
Details From ZSSS - HONGQIAO INTL
To ZSFZ - CHANGLE
Flight Number -
Tags decoded
Created
Modified
Stats Distance 340 nm / 630 km
Max Altitude 0 ft / 0 m
Waypoints 6
Social Downloads 0
Likes 0
Share VATSIM

Download

Looking for another format? Having issues loading an existing format? Contact us
Advertisement - Login to hide

Notes

Requested: ZSSS AND SHZ DST LJG ZSFZ

Route

ZSSS AND SHZ DST LJG ZSFZ

ID Type Via Altitude Latitude Longitude Leg Dist Tot Dist Heading (true) Name
O ZSSS APT - 0 ft / 0 m 31.19787˚ 121.33632˚ - 0 nm - HONGQIAO INTL
AND VOR - 0 ft / 0 m 30.25333˚ 121.21833˚ 57 nm 57 nm 186° / 186° ANDONG VOR-DME
SHZ VOR - 0 ft / 0 m 29.59667˚ 120.81333˚ 44 nm 101 nm 208° / 208° SHENGZHOU VOR-DME
DST VOR - 0 ft / 0 m 27.74833˚ 120.62833˚ 111 nm 213 nm 185° / 185° Dongshan VOR-DME
LJG VOR - 0 ft / 0 m 26.22000˚ 119.54667˚ 108 nm 321 nm 212° / 212° LIANJIANG VOR-DME
O ZSFZ APT - 0 ft / 0 m 25.93506˚ 119.66327˚ 18 nm 339 nm 160° / 160° CHANGLE

Altitude Profile

Advertisement - Login to hide

Weather


0- 5 10 15 20 25 30 35+ Temperature / ° C

Clouds and Precipitation
Forecast for 2017-12-17 06:00 UTC. Updated an hour ago

Ground ~20,000 ft ~40,000 ft Winds

ZSSS

Details ICAO ZSSS (SHA)
Name HONGQIAO INTL
Region China
Timezone Asia/Shanghai (UTC+8.0)
Stats Elevation 10 ft / 3 m (AMSL)
Location 31.197875° 121.336319°
Runways 1
Magnetic Variation 5.917° W

METAR

ZSSS 170230Z 33004MPS 300V010 CAVOK 04/M07 Q1036 NOSIG

Decode

TAF

Not found

Departure Runways

ID Width Length Bearing (true) Bearing (mag) Surface Threshold Offset Overrun Length
18 190 ft / 58 m 11,234 ft / 3,424 m 177.21° 183.13° Asphalt 657 ft / 200 m 520 ft / 159 m
36 190 ft / 58 m 11,234 ft / 3,424 m 357.21° 3.13° Asphalt 657 ft / 200 m 520 ft / 159 m

ZSFZ

Details ICAO ZSFZ (FOC)
Name CHANGLE
Region China
Timezone Asia/Shanghai (UTC+8.0)
Stats Elevation 46 ft / 14 m (AMSL)
Location 25.935064° 119.663272°
Runways 1
Magnetic Variation 4.428° W

METAR

ZSFZ 170200Z 03009MPS 8000 FEW040 09/M02 Q1032 NOSIG

Decode

TAF

Not found

Destination Runways

ID Width Length Bearing (true) Bearing (mag) Surface Threshold Offset Overrun Length
03 150 ft / 46 m 11,874 ft / 3,619 m 26.58° 31.01° Concrete 0 ft / 0 m 200 ft / 61 m
21 150 ft / 46 m 11,874 ft / 3,619 m 206.59° 211.02° Concrete 0 ft / 0 m 200 ft / 61 m

Approach Navaids

Runway Type Ident Frequency Range Bearing (true) Bearing (mag) Slope Elevation
03 Localiser ICL 110.70 MHz 18 nm / 33 km 26.57° 31.00° - 46 ft / 14 m (AMSL)
03 Glidescope ICL 110.70 MHz 10 nm / 19 km 26.59° 31.01° 3.00° 46 ft / 14 m (AMSL)
03 DME ICL 110.70 MHz 18 nm / 33 km - - - 46 ft / 14 m (AMSL)
21 Localiser INN 110.30 MHz 18 nm / 33 km 206.56° 210.99° - 46 ft / 14 m (AMSL)
21 Glidescope INN 110.30 MHz 10 nm / 19 km 206.59° 211.01° 3.00° 46 ft / 14 m (AMSL)

Popular Alternatives